Airfield :
LOGIN :

Register | Disclaimer

   EN    FR    IT 

 










Legend :    VFR   Marginal VFR   IFR   Intensive IFR   Very Intensive IFR
Visi :
Ceiling :
>= 8 km
>= 3000ft
5 to 8 km
1000 to 3000 ft
1500m to 5 km
500 to 1000 ft
800 to 1500m
200 to 500 ft
< 800m
< 200 ft
Symbols :   Thunderstorms  Fog  Heavy snow  Heavy precipitations  Wind > 20 kt
SIGMETs :     Misc.  Thunderstorms  Icing  Turbulence  Mountain Waves  Volcanic Ashes






- Airport Elevation : 42 ft
- IATA code : CAL


EGEC - Campbeltown

CURRENT METAR :
  • 051720Z 23024KT 6000 RA BKN014 12/12 Q0995

EXPIRED METARs :
  • 051650Z 23024G34KT 4000 RA BKN011 12/12 Q0995
  • 051620Z 23021KT 4500 RA BKN011 BKN021 12/12 Q0996 RESHRA
  • 051550Z 23023KT 4000 SHRA BKN013 12/11 Q0996 RESHRA
  • 051520Z 22024G35KT 4000 +SHRA BKN013 12/11 Q0996
  • 051450Z 22021KT 9999 -SHRA FEW012 BKN018 BKN027 12/10 Q0996

TAF TAF EGEC
Valid from the 05 at 15:00 until the 05 at 18:00 UTC


051400Z 0515/0518 21020G30KT 9999 SCT018
TEMPO 0515/0518 23030G40KT 6000 RADZ BKN012
PROB40
TEMPO 0515/0518 4000 DZRA +RA BKN004



MET'MAP, your aeronautical weather chart ! - Copyright ORBIFLY December 2007 - Disclaimer

ORBIFLY MET'MAP TEAM :

Programming & Development : Alexandra Zaïnal
Concept & original design : Baudouin d'Aumeries
Assistance for programming : Marc-Olivier Méhu
Technical & hardware support : Manuel Goepfert

Contact : metmap@orbifly.com




SOURCES & CREDITS :

   NOAA